Latest Weather Observations for Mornington Island Airport

IDQ60801

Issued at 7:05 pm EST Thursday 23 October 2014 (issued every 30 minutes, with the page automatically refreshed every 10 minutes)

About weather observations | Map of weather stations | Latest weather observations for QLD | Other Formats
Station Details ID: 029182 Name: MORNINGTON ISLAND AIRPORT Lat: -16.66 Lon: 139.17 Height: 9.0 m
Data from the previous 72 hours. | See also: Recent months at Mornington Island Airport
Date/Time
EST
Temp
°C
App
Temp
°C
Dew
Point
Rel
Hum
%
Delta-T
°C
Wind Press
QNH
hPa
Press
MSL
hPa
Rain
since 9 am
mm
Dir
 
Spd
km/h
Gust
km/h
Spd
kts
Gust
kts
23/07:00pm 26.4 26.2 17.5 58 5.6 NW 15 17 8 9 1013.4 1013.3 0.0
23/06:30pm 26.8 26.8 17.3 56 5.9 NW 13 17 7 9 1013.2 1013.1 0.0
23/06:00pm 27.5 27.3 17.7 55 6.2 NW 15 19 8 10 1013.1 1013.0 0.0
23/05:30pm 28.1 26.9 17.0 51 6.9 NNW 19 22 10 12 1013.0 1012.9 0.0
23/05:00pm 28.7 27.0 16.3 47 7.7 NNW 20 24 11 13 1012.9 1012.8 0.0
23/04:30pm 29.1 28.3 17.0 48 7.6 NW 17 24 9 13 1013.0 1012.9 0.0
23/04:00pm 29.6 28.5 17.4 47 7.7 NW 19 30 10 16 1013.2 1013.1 0.0
23/03:30pm 29.4 29.0 16.2 44 8.2 W 13 19 7 10 1013.4 1013.3 0.0
23/03:00pm 30.1 29.9 15.8 42 8.9 WNW 11 20 6 11 1013.6 1013.5 0.0
23/02:30pm 30.1 28.6 14.2 38 9.6 N 15 22 8 12 1013.6 1013.5 0.0
23/02:00pm 30.5 28.9 16.1 41 9.0 N 19 26 10 14 1013.8 1013.7 0.0
23/01:30pm 30.6 28.5 16.2 41 9.0 NNW 22 32 12 17 1014.2 1014.1 0.0
23/01:00pm 32.3 29.2 10.4 26 12.6 ESE 17 26 9 14 1014.8 1014.7 0.0
23/12:30pm 32.2 29.6 10.8 27 12.4 E 15 22 8 12 1015.1 1015.0 0.0
23/12:00pm 32.6 27.5 10.6 26 12.7 ENE 28 33 15 18 1015.6 1015.5 0.0
23/11:30am 31.9 27.2 9.4 25 12.7 E 24 39 13 21 1015.8 1015.7 0.0
23/11:00am 32.0 29.5 12.3 30 11.6 ENE 17 33 9 18 1016.1 1016.0 0.0
23/10:30am 32.0 29.9 13.7 33 11.0 ENE 17 24 9 13 1016.5 1016.4 0.0
23/10:00am 30.7 28.1 15.9 40 9.2 E 24 33 13 18 1016.6 1016.5 0.0
23/09:30am 29.6 27.2 16.4 45 8.2 NE 24 33 13 18 1016.9 1016.8 0.0
23/09:00am 28.8 26.9 16.7 48 7.6 E 22 26 12 14 1016.9 1016.8 0.0
23/08:30am 29.0 26.9 17.2 49 7.4 NE 24 33 13 18 1016.8 1016.7 0.0
23/08:00am 27.6 26.7 19.1 59 5.5 NE 22 33 12 18 1016.2 1016.1 0.0
23/07:30am 26.1 26.3 20.2 70 3.8 ENE 19 28 10 15 1015.8 1015.7 0.0
23/07:00am 24.6 26.1 20.5 78 2.7 E 13 17 7 9 1015.4 1015.3 0.0
23/06:30am 22.7 25.4 20.2 86 1.6 E 6 7 3 4 1015.1 1015.0 0.0
23/06:00am 22.7 25.1 20.0 85 1.7 ENE 7 11 4 6 1014.6 1014.5 0.0
23/05:30am 23.2 25.9 20.3 84 1.9 SE 6 7 3 4 1014.1 1014.0 0.0
23/05:00am 23.7 26.4 20.6 83 2.0 SSE 7 11 4 6 1013.6 1013.5 0.0
23/04:30am 25.0 27.3 21.3 80 2.4 SW 11 15 6 8 1012.7 1012.6 0.0
23/04:00am 24.4 27.2 21.5 84 1.9 WSW 9 13 5 7 1012.5 1012.4 0.0
23/03:30am 23.6 26.1 19.9 80 2.4 SSW 6 9 3 5 1012.9 1012.8 0.0
23/03:00am 25.4 28.2 20.9 76 3.0 WSW 7 11 4 6 1013.0 1012.9 0.0
23/02:30am 25.5 27.8 20.7 75 3.1 WSW 9 11 5 6 1013.3 1013.2 0.0
23/02:00am 25.5 28.2 20.7 75 3.1 WSW 7 11 4 6 1013.7 1013.6 0.0
23/01:30am 25.8 27.8 20.8 74 3.3 W 11 15 6 8 1013.8 1013.7 0.0
23/01:00am 25.7 27.6 20.5 73 3.4 W 11 17 6 9 1014.2 1014.1 0.0
23/12:30am 25.7 27.5 20.3 72 3.5 W 11 15 6 8 1014.4 1014.3 0.0
23/12:00am 25.8 27.7 20.6 73 3.4 W 11 15 6 8 1014.6 1014.5 0.0
 
Date/Time
EST
Temp
°C
App
Temp
°C
Dew
Point
Rel
Hum
%
Delta-T
°C
Wind Press
QNH
hPa
Press
MSL
hPa
Rain
since 9 am
mm
Dir
 
Spd
km/h
Gust
km/h
Spd
kts
Gust
kts
22/11:30pm 25.9 27.2 20.2 71 3.7 WNW 13 17 7 9 1014.8 1014.7 0.0
22/11:00pm 26.0 26.9 20.1 70 3.8 NW 15 17 8 9 1014.8 1014.7 0.0
22/10:30pm 26.0 27.3 20.1 70 3.8 NW 13 17 7 9 1014.9 1014.8 0.0
22/10:00pm 26.0 26.8 19.9 69 4.0 NNW 15 20 8 11 1014.6 1014.5 0.0
22/09:30pm 26.1 26.4 19.7 68 4.1 NW 17 19 9 10 1014.6 1014.5 0.0
22/09:00pm 26.1 26.6 19.2 65 4.4 NW 15 19 8 10 1014.4 1014.3 0.0
22/08:30pm 26.1 26.6 19.2 65 4.4 NW 15 17 8 9 1014.4 1014.3 0.0
22/08:00pm 26.2 26.6 19.1 65 4.6 NW 15 17 8 9 1014.3 1014.2 0.0
22/07:30pm 26.1 26.6 19.2 65 4.4 NNW 15 17 8 9 1014.3 1014.2 0.0
22/07:00pm 26.2 27.0 19.1 65 4.6 NNW 13 17 7 9 1014.1 1014.0 0.0
22/06:30pm 26.6 27.1 19.2 64 4.8 NNW 15 19 8 10 1014.0 1013.9 0.0
22/06:00pm 27.4 27.0 18.9 59 5.5 NNW 19 20 10 11 1014.0 1013.9 0.0
22/05:30pm 27.9 28.0 19.1 58 5.7 NW 17 20 9 11 1014.0 1013.9 0.0
22/05:00pm 28.3 28.4 19.2 57 5.9 WNW 17 20 9 11 1013.9 1013.8 0.0
22/04:30pm 28.8 29.4 19.4 56 6.1 WNW 15 20 8 11 1013.9 1013.8 0.0
22/04:00pm 28.2 28.9 18.9 57 6.0 WNW 13 17 7 9 1014.0 1013.9 0.0
22/03:30pm 29.1 28.5 18.8 53 6.6 NW 20 24 11 13 1013.9 1013.8 0.0
22/03:00pm 30.6 29.8 18.0 47 8.1 NNW 19 22 10 12 1013.8 1013.7 0.0
22/02:30pm 30.2 29.4 18.0 48 7.8 N 19 24 10 13 1014.1 1014.0 0.0
22/02:00pm 29.2 28.0 17.4 49 7.5 N 20 24 11 13 1014.6 1014.5 0.0
22/01:30pm 30.1 28.4 17.2 46 8.2 N 22 30 12 16 1014.9 1014.8 0.0
22/01:00pm 30.4 27.9 17.1 44 8.4 N 26 32 14 17 1015.4 1015.3 0.0
22/12:30pm 30.2 28.5 17.3 46 8.2 N 22 33 12 18 1015.7 1015.6 0.0
22/12:00pm 30.2 28.6 16.6 44 8.5 N 20 26 11 14 1016.1 1016.0 0.0
22/11:30am 30.9 28.9 14.9 37 9.8 ENE 19 26 10 14 1016.5 1016.4 0.0
22/11:00am 30.9 28.8 15.3 38 9.6 ENE 20 30 11 16 1016.8 1016.7 0.0
22/10:30am 29.6 27.7 16.8 46 8.0 ENE 22 30 12 16 1017.0 1016.9 0.0
22/10:00am 28.9 27.5 17.1 49 7.4 ENE 20 28 11 15 1017.0 1016.9 0.0
22/09:30am 29.0 27.8 17.5 49 7.3 NE 20 30 11 16 1017.2 1017.1 0.0
22/09:00am 28.8 26.5 17.7 51 7.0 NE 26 35 14 19 1017.0 1016.9 0.0
22/08:30am 28.3 26.5 17.8 53 6.7 NE 24 32 13 17 1016.9 1016.8 0.0
22/08:00am 27.7 27.7 19.0 59 5.6 NE 17 30 9 16 1016.7 1016.6 0.0
22/07:30am 26.6 27.7 19.7 66 4.5 ENE 13 17 7 9 1016.1 1016.0 0.0
22/07:00am 24.9 25.8 19.3 71 3.6 E 13 17 7 9 1015.6 1015.5 0.0
22/06:30am 23.8 24.1 18.7 73 3.2 ESE 15 19 8 10 1015.2 1015.1 0.0
22/06:00am 23.1 22.9 18.4 75 3.0 E 17 20 9 11 1014.9 1014.8 0.0
22/05:40am 22.2 20.5 19.7 86 1.6 E 28 41 15 22 1014.8 1014.7 0.0
22/05:30am 21.8 23.8 18.8 83 1.9 SSW 6 7 3 4 1013.9 1013.8 0.0
22/05:00am 23.2 25.6 19.6 80 2.3 SSW 6 7 3 4 1013.7 1013.6 0.0
22/04:30am 24.1 26.6 20.2 79 2.5 SSW 7 11 4 6 1013.5 1013.4 0.0
22/04:00am 24.7 27.5 20.8 79 2.6 SW 7 13 4 7 1013.4 1013.3 0.0
22/03:30am 24.7 27.5 20.8 79 2.6 SSW 7 11 4 6 1013.3 1013.2 0.0
22/03:00am 25.1 28.0 21.0 78 2.7 SW 7 13 4 7 1013.3 1013.2 0.0
22/02:30am 25.7 27.6 19.8 70 3.8 WSW 9 15 5 8 1013.5 1013.4 0.0
22/02:00am 25.4 27.0 20.0 72 3.5 WSW 11 13 6 7 1013.8 1013.7 0.0
22/01:30am 23.9 26.2 20.6 82 2.2 W 9 13 5 7 1014.0 1013.9 0.0
22/01:00am 22.8 25.5 18.6 77 2.6 WNW 2 7 1 4 1014.4 1014.3 0.0
22/12:30am 23.8 25.1 17.5 68 3.9 WNW 7 11 4 6 1014.6 1014.5 0.0
22/12:00am 25.8 27.7 19.7 69 3.9 WNW 9 11 5 6 1014.7 1014.6 0.0
 
Date/Time
EST
Temp
°C
App
Temp
°C
Dew
Point
Rel
Hum
%
Delta-T
°C
Wind Press
QNH
hPa
Press
MSL
hPa
Rain
since 9 am
mm
Dir
 
Spd
km/h
Gust
km/h
Spd
kts
Gust
kts
21/11:30pm 26.0 27.8 19.6 68 4.1 W 9 13 5 7 1014.9 1014.8 0.0
21/11:00pm 25.8 27.4 19.9 70 3.8 WNW 11 15 6 8 1015.2 1015.1 0.0
21/10:30pm 26.0 27.4 19.6 68 4.1 WNW 11 15 6 8 1015.3 1015.2 0.0
21/10:00pm 26.1 27.0 19.2 65 4.4 WNW 13 17 7 9 1015.4 1015.3 0.0
21/09:30pm 25.9 26.7 19.1 66 4.4 WNW 13 15 7 8 1015.3 1015.2 0.0
21/09:00pm 26.0 26.9 19.2 66 4.4 WNW 13 17 7 9 1015.2 1015.1 0.0
21/08:30pm 26.1 26.3 18.5 63 4.8 WNW 15 19 8 10 1015.1 1015.0 0.0
21/08:00pm 26.2 26.9 18.8 63 4.7 WNW 13 17 7 9 1014.9 1014.8 0.0
21/07:30pm 26.4 26.2 17.7 58 5.5 NW 15 19 8 10 1014.8 1014.7 0.0
21/07:00pm 26.5 26.5 18.1 60 5.3 NNW 15 19 8 10 1014.7 1014.6 0.0
21/06:30pm 27.0 26.6 18.0 58 5.7 NW 17 19 9 10 1014.6 1014.5 0.0
21/06:00pm 27.7 27.7 18.1 56 6.1 WNW 15 19 8 10 1014.7 1014.6 0.0
21/05:30pm 28.2 28.2 18.0 54 6.5 WNW 15 20 8 11 1014.6 1014.5 0.0
21/05:00pm 28.4 27.9 17.9 53 6.7 WNW 17 20 9 11 1014.4 1014.3 0.0
21/04:30pm 29.0 28.8 17.5 49 7.3 WNW 15 19 8 10 1014.4 1014.3 0.0
21/04:00pm 29.6 28.9 17.4 47 7.7 WNW 17 20 9 11 1014.4 1014.3 0.0
21/03:30pm 29.6 28.5 17.4 47 7.7 WNW 19 22 10 12 1014.4 1014.3 0.0
21/03:00pm 29.5 29.0 17.7 49 7.5 WNW 17 24 9 13 1014.7 1014.6 0.0
21/02:30pm 28.6 28.2 18.1 53 6.7 W 17 26 9 14 1014.8 1014.7 0.0
21/02:00pm 30.5 30.8 16.1 41 9.0 NNE 9 17 5 9 1015.0 1014.9 0.0
21/01:30pm 30.9 30.8 16.9 43 8.8 N 13 20 7 11 1015.4 1015.3 0.0
21/01:00pm 30.9 30.9 17.2 43 8.7 NNE 13 24 7 13 1016.1 1016.0 0.0
21/12:30pm 29.6 30.0 18.1 50 7.4 NNE 13 22 7 12 1016.8 1016.7 0.0
21/12:00pm 30.4 29.9 14.9 39 9.5 ESE 11 20 6 11 1017.1 1017.0 0.0
21/11:30am 31.2 29.8 14.4 36 10.2 ESE 15 26 8 14 1017.4 1017.3 0.0
21/11:00am 32.6 29.9 11.7 28 12.3 E 17 28 9 15 1017.5 1017.4 0.0
21/10:30am 31.6 29.8 16.0 39 9.7 E 20 26 11 14 1017.5 1017.4 0.0
21/10:00am 29.9 29.7 17.7 48 7.8 ENE 15 22 8 12 1017.7 1017.6 0.0
21/09:30am 30.6 29.2 17.0 44 8.6 ENE 20 28 11 15 1017.7 1017.6 0.0
21/09:00am 29.6 27.1 18.1 50 7.3 ENE 28 39 15 21 1017.4 1017.3 0.0
21/08:30am 28.6 26.4 18.7 55 6.4 NE 28 39 15 21 1017.1 1017.0 0.0
21/08:11am 28.5 26.4 18.9 56 6.2 NE 28 46 15 25 1016.7 1016.6 0.0
21/08:00am 28.1 25.5 19.6 60 5.5 NE 32 44 17 24 1016.6 1016.5 0.0
21/07:30am 27.3 27.0 20.4 66 4.5 NE 22 30 12 16 1016.2 1016.1 0.0
21/07:00am 26.0 26.6 20.3 71 3.7 ENE 17 24 9 13 1015.7 1015.6 0.0
21/06:30am 24.2 25.8 19.1 73 3.3 NE 9 11 5 6 1015.2 1015.1 0.0
21/06:00am 25.0 26.0 19.4 71 3.6 E 13 15 7 8 1014.8 1014.7 0.0
21/05:30am 25.2 26.5 20.2 74 3.3 SE 13 19 7 10 1014.2 1014.1 0.0
21/05:00am 23.3 25.6 19.9 81 2.2 SE 7 11 4 6 1013.9 1013.8 0.0
21/04:30am 23.6 25.6 19.9 80 2.4 SE 9 13 5 7 1013.4 1013.3 0.0
21/04:00am 24.6 27.1 20.3 77 2.8 SW 7 11 4 6 1012.7 1012.6 0.0
21/03:30am 25.2 27.9 20.7 76 2.9 SW 7 11 4 6 1012.9 1012.8 0.0
21/03:00am 25.1 27.8 20.6 76 2.9 SSW 7 13 4 7 1013.0 1012.9 0.0
21/02:30am 25.4 27.9 21.1 77 2.8 SW 9 15 5 8 1013.3 1013.2 0.0
21/02:00am 25.5 27.2 21.0 76 3.0 WSW 13 19 7 10 1013.6 1013.5 0.0
21/01:30am 25.4 27.6 21.1 77 2.8 WSW 11 17 6 9 1014.0 1013.9 0.0
21/01:00am 25.6 27.5 21.3 77 2.8 SW 13 20 7 11 1014.3 1014.2 0.0
21/12:30am 25.9 27.4 20.5 72 3.5 WSW 13 19 7 10 1014.6 1014.5 0.0
21/12:00am 25.8 27.1 20.1 71 3.7 WSW 13 17 7 9 1014.8 1014.7 0.0
 
Date/Time
EST
Temp
°C
App
Temp
°C
Dew
Point
Rel
Hum
%
Delta-T
°C
Wind Press
QNH
hPa
Press
MSL
hPa
Rain
since 9 am
mm
Dir
 
Spd
km/h
Gust
km/h
Spd
kts
Gust
kts
20/11:30pm 25.9 27.4 20.5 72 3.5 WSW 13 20 7 11 1015.2 1015.1 0.0
20/11:00pm 25.9 27.4 20.5 72 3.5 W 13 19 7 10 1015.3 1015.2 0.0
20/10:30pm 25.8 27.0 19.9 70 3.8 W 13 15 7 8 1015.2 1015.1 0.0
20/10:00pm 25.9 27.4 19.8 69 4.0 W 11 15 6 8 1015.0 1014.9 0.0
20/09:30pm 25.8 27.3 19.7 69 3.9 WNW 11 15 6 8 1014.9 1014.8 0.0
20/09:00pm 25.6 27.4 19.5 69 3.9 NW 9 11 5 6 1014.7 1014.6 0.0
20/08:30pm 25.8 27.1 18.5 64 4.6 NNW 9 13 5 7 1014.4 1014.3 0.0
20/08:00pm 26.0 27.0 18.7 64 4.7 NNW 11 15 6 8 1014.2 1014.1 0.0
20/07:30pm 25.9 27.1 18.3 63 4.8 N 9 13 5 7 1014.0 1013.9 0.0

Other Formats:

Comma delimited format used in spreadsheet applications
http://www.bom.gov.au/fwo/IDQ60801/IDQ60801.94254.axf

JavaScript Object Notation format (JSON) in row-major order
http://www.bom.gov.au/fwo/IDQ60801/IDQ60801.94254.json